sensor_id;sensor_type;location;lat;lon;timestamp;temperature;humidity
45765;DHT22;31474;45.332;10.230;2023-05-10T00:01:37;16.40;99.90
45765;DHT22;31474;45.332;10.230;2023-05-10T00:04:03;16.50;99.90
45765;DHT22;31474;45.332;10.230;2023-05-10T00:06:29;16.60;99.90
45765;DHT22;31474;45.332;10.230;2023-05-10T00:08:55;16.70;99.90
45765;DHT22;31474;45.332;10.230;2023-05-10T00:11:21;16.80;99.90
45765;DHT22;31474;45.332;10.230;2023-05-10T00:13:46;16.80;99.90
45765;DHT22;31474;45.332;10.230;2023-05-10T00:16:12;16.90;99.90
45765;DHT22;31474;45.332;10.230;2023-05-10T00:18:39;16.90;99.90
45765;DHT22;31474;45.332;10.230;2023-05-10T00:21:05;16.90;99.90
45765;DHT22;31474;45.332;10.230;2023-05-10T00:23:30;16.80;99.90
45765;DHT22;31474;45.332;10.230;2023-05-10T00:25:56;16.70;99.90
45765;DHT22;31474;45.332;10.230;2023-05-10T00:28:22;16.50;99.90
45765;DHT22;31474;45.332;10.230;2023-05-10T00:30:47;16.30;99.90
45765;DHT22;31474;45.332;10.230;2023-05-10T00:33:13;16.10;99.90
45765;DHT22;31474;45.332;10.230;2023-05-10T00:35:38;16.00;99.90
45765;DHT22;31474;45.332;10.230;2023-05-10T00:38:04;15.90;99.90
45765;DHT22;31474;45.332;10.230;2023-05-10T00:40:30;15.90;99.90
45765;DHT22;31474;45.332;10.230;2023-05-10T00:42:56;15.90;99.90
45765;DHT22;31474;45.332;10.230;2023-05-10T00:45:23;15.90;99.90
45765;DHT22;31474;45.332;10.230;2023-05-10T00:47:48;15.90;99.90
45765;DHT22;31474;45.332;10.230;2023-05-10T00:50:15;15.90;99.90
45765;DHT22;31474;45.332;10.230;2023-05-10T00:52:41;15.90;99.90
45765;DHT22;31474;45.332;10.230;2023-05-10T00:55:09;15.90;99.90
45765;DHT22;31474;45.332;10.230;2023-05-10T00:57:35;16.00;99.90
45765;DHT22;31474;45.332;10.230;2023-05-10T01:00:01;16.00;99.90
45765;DHT22;31474;45.332;10.230;2023-05-10T01:02:28;16.00;99.90
45765;DHT22;31474;45.332;10.230;2023-05-10T01:04:54;16.00;99.90
45765;DHT22;31474;45.332;10.230;2023-05-10T01:07:20;16.00;99.90
45765;DHT22;31474;45.332;10.230;2023-05-10T01:09:45;16.00;99.90
45765;DHT22;31474;45.332;10.230;2023-05-10T01:12:11;15.90;99.90
45765;DHT22;31474;45.332;10.230;2023-05-10T01:14:37;15.90;99.90
45765;DHT22;31474;45.332;10.230;2023-05-10T01:17:04;15.80;99.90
45765;DHT22;31474;45.332;10.230;2023-05-10T01:19:31;15.90;99.90
45765;DHT22;31474;45.332;10.230;2023-05-10T01:27:40;16.10;99.90
45765;DHT22;31474;45.332;10.230;2023-05-10T01:33:22;16.10;99.90
45765;DHT22;31474;45.332;10.230;2023-05-10T01:35:58;16.00;99.90
45765;DHT22;31474;45.332;10.230;2023-05-10T01:38:43;16.00;99.90
45765;DHT22;31474;45.332;10.230;2023-05-10T01:41:57;15.90;99.90
45765;DHT22;31474;45.332;10.230;2023-05-10T01:44:28;15.90;99.90
45765;DHT22;31474;45.332;10.230;2023-05-10T01:47:09;15.90;99.90
45765;DHT22;31474;45.332;10.230;2023-05-10T01:49:43;15.90;99.90
45765;DHT22;31474;45.332;10.230;2023-05-10T01:52:14;15.80;99.90
45765;DHT22;31474;45.332;10.230;2023-05-10T01:54:44;15.80;99.90
45765;DHT22;31474;45.332;10.230;2023-05-10T01:57:13;15.80;99.90
45765;DHT22;31474;45.332;10.230;2023-05-10T01:59:43;15.80;99.90
45765;DHT22;31474;45.332;10.230;2023-05-10T02:02:12;15.70;99.90
45765;DHT22;31474;45.332;10.230;2023-05-10T02:04:39;15.70;99.90
45765;DHT22;31474;45.332;10.230;2023-05-10T02:07:06;15.60;99.90
45765;DHT22;31474;45.332;10.230;2023-05-10T02:09:34;15.60;99.90
45765;DHT22;31474;45.332;10.230;2023-05-10T02:12:02;15.50;99.90
45765;DHT22;31474;45.332;10.230;2023-05-10T02:14:31;15.40;99.90
45765;DHT22;31474;45.332;10.230;2023-05-10T02:16:58;15.40;99.90
45765;DHT22;31474;45.332;10.230;2023-05-10T02:19:26;15.40;99.90
45765;DHT22;31474;45.332;10.230;2023-05-10T02:21:52;15.40;99.90
45765;DHT22;31474;45.332;10.230;2023-05-10T02:24:19;15.50;99.90
45765;DHT22;31474;45.332;10.230;2023-05-10T02:26:46;15.40;99.90
45765;DHT22;31474;45.332;10.230;2023-05-10T02:29:12;15.40;99.90
45765;DHT22;31474;45.332;10.230;2023-05-10T02:31:39;15.40;99.90
45765;DHT22;31474;45.332;10.230;2023-05-10T02:34:09;15.30;99.90
45765;DHT22;31474;45.332;10.230;2023-05-10T02:36:36;15.30;99.90
45765;DHT22;31474;45.332;10.230;2023-05-10T02:39:03;15.30;99.90
45765;DHT22;31474;45.332;10.230;2023-05-10T02:41:31;15.20;99.90
45765;DHT22;31474;45.332;10.230;2023-05-10T02:43:59;15.10;99.90
45765;DHT22;31474;45.332;10.230;2023-05-10T02:46:26;14.90;99.90
45765;DHT22;31474;45.332;10.230;2023-05-10T02:48:52;14.90;99.90
45765;DHT22;31474;45.332;10.230;2023-05-10T02:51:19;14.80;99.90
45765;DHT22;31474;45.332;10.230;2023-05-10T02:53:47;14.70;99.90
45765;DHT22;31474;45.332;10.230;2023-05-10T02:56:29;14.70;99.90
45765;DHT22;31474;45.332;10.230;2023-05-10T02:58:57;14.60;99.90
45765;DHT22;31474;45.332;10.230;2023-05-10T03:01:23;14.50;99.90
45765;DHT22;31474;45.332;10.230;2023-05-10T03:03:49;14.60;99.90
45765;DHT22;31474;45.332;10.230;2023-05-10T03:06:14;14.50;99.90
45765;DHT22;31474;45.332;10.230;2023-05-10T03:08:42;14.50;99.90
45765;DHT22;31474;45.332;10.230;2023-05-10T03:11:29;14.40;99.90
45765;DHT22;31474;45.332;10.230;2023-05-10T03:14:03;14.30;99.90
45765;DHT22;31474;45.332;10.230;2023-05-10T03:16:35;14.20;99.90
45765;DHT22;31474;45.332;10.230;2023-05-10T03:19:08;14.20;99.90
45765;DHT22;31474;45.332;10.230;2023-05-10T03:21:37;14.30;99.90
45765;DHT22;31474;45.332;10.230;2023-05-10T03:24:07;14.20;99.90
45765;DHT22;31474;45.332;10.230;2023-05-10T03:26:34;14.10;99.90
45765;DHT22;31474;45.332;10.230;2023-05-10T03:29:02;14.10;99.90
45765;DHT22;31474;45.332;10.230;2023-05-10T03:31:28;14.10;99.90
45765;DHT22;31474;45.332;10.230;2023-05-10T03:33:53;14.00;99.90
45765;DHT22;31474;45.332;10.230;2023-05-10T03:36:19;14.00;99.90
45765;DHT22;31474;45.332;10.230;2023-05-10T03:38:45;13.90;99.90
45765;DHT22;31474;45.332;10.230;2023-05-10T03:41:10;13.90;99.90
45765;DHT22;31474;45.332;10.230;2023-05-10T03:43:36;14.00;99.90
45765;DHT22;31474;45.332;10.230;2023-05-10T03:46:05;14.10;99.90
45765;DHT22;31474;45.332;10.230;2023-05-10T03:48:32;14.00;99.90
45765;DHT22;31474;45.332;10.230;2023-05-10T03:50:58;13.90;99.90
45765;DHT22;31474;45.332;10.230;2023-05-10T03:53:23;13.90;99.90
45765;DHT22;31474;45.332;10.230;2023-05-10T03:55:49;13.90;99.90
45765;DHT22;31474;45.332;10.230;2023-05-10T03:58:15;13.90;99.90
45765;DHT22;31474;45.332;10.230;2023-05-10T04:00:40;13.90;99.90
45765;DHT22;31474;45.332;10.230;2023-05-10T04:03:09;13.90;99.90
45765;DHT22;31474;45.332;10.230;2023-05-10T04:05:35;13.90;99.90
45765;DHT22;31474;45.332;10.230;2023-05-10T04:08:01;13.90;99.90
45765;DHT22;31474;45.332;10.230;2023-05-10T04:10:27;13.90;99.90
45765;DHT22;31474;45.332;10.230;2023-05-10T04:12:53;13.80;99.90
45765;DHT22;31474;45.332;10.230;2023-05-10T04:15:19;13.80;99.90
45765;DHT22;31474;45.332;10.230;2023-05-10T04:17:45;13.80;99.90
45765;DHT22;31474;45.332;10.230;2023-05-10T04:20:11;13.80;99.90
45765;DHT22;31474;45.332;10.230;2023-05-10T04:22:36;13.90;99.90
45765;DHT22;31474;45.332;10.230;2023-05-10T04:25:02;13.80;99.90
45765;DHT22;31474;45.332;10.230;2023-05-10T04:27:28;13.70;99.90
45765;DHT22;31474;45.332;10.230;2023-05-10T04:29:54;13.70;99.90
45765;DHT22;31474;45.332;10.230;2023-05-10T04:32:19;13.80;99.90
45765;DHT22;31474;45.332;10.230;2023-05-10T04:34:45;13.70;99.90
45765;DHT22;31474;45.332;10.230;2023-05-10T04:37:11;13.70;99.90
45765;DHT22;31474;45.332;10.230;2023-05-10T04:39:37;13.80;99.90
45765;DHT22;31474;45.332;10.230;2023-05-10T04:42:03;13.80;99.90
45765;DHT22;31474;45.332;10.230;2023-05-10T04:44:31;13.80;99.90
45765;DHT22;31474;45.332;10.230;2023-05-10T04:46:57;13.70;99.90
45765;DHT22;31474;45.332;10.230;2023-05-10T04:49:22;13.70;99.90
45765;DHT22;31474;45.332;10.230;2023-05-10T04:51:48;13.70;99.90
45765;DHT22;31474;45.332;10.230;2023-05-10T04:54:13;13.70;99.90
45765;DHT22;31474;45.332;10.230;2023-05-10T04:56:39;13.60;99.90
45765;DHT22;31474;45.332;10.230;2023-05-10T04:59:06;13.70;99.90
45765;DHT22;31474;45.332;10.230;2023-05-10T05:01:31;13.60;99.90
45765;DHT22;31474;45.332;10.230;2023-05-10T05:03:57;13.70;99.90
45765;DHT22;31474;45.332;10.230;2023-05-10T05:06:23;13.80;99.90
45765;DHT22;31474;45.332;10.230;2023-05-10T05:08:50;13.80;99.90
45765;DHT22;31474;45.332;10.230;2023-05-10T05:11:16;13.70;99.90
45765;DHT22;31474;45.332;10.230;2023-05-10T05:13:42;13.80;99.90
45765;DHT22;31474;45.332;10.230;2023-05-10T05:16:08;13.70;99.90
45765;DHT22;31474;45.332;10.230;2023-05-10T05:18:34;13.70;99.90
45765;DHT22;31474;45.332;10.230;2023-05-10T05:21:00;13.70;99.90
45765;DHT22;31474;45.332;10.230;2023-05-10T05:23:26;13.70;99.90
45765;DHT22;31474;45.332;10.230;2023-05-10T05:25:52;13.70;99.90
45765;DHT22;31474;45.332;10.230;2023-05-10T05:28:19;13.80;99.90
45765;DHT22;31474;45.332;10.230;2023-05-10T05:30:45;13.70;99.90
45765;DHT22;31474;45.332;10.230;2023-05-10T05:33:11;13.70;99.90
45765;DHT22;31474;45.332;10.230;2023-05-10T05:35:36;13.70;99.90
45765;DHT22;31474;45.332;10.230;2023-05-10T05:38:02;13.80;99.90
45765;DHT22;31474;45.332;10.230;2023-05-10T05:40:28;13.90;99.90
45765;DHT22;31474;45.332;10.230;2023-05-10T05:42:53;13.90;99.90
45765;DHT22;31474;45.332;10.230;2023-05-10T05:45:19;13.90;99.90
45765;DHT22;31474;45.332;10.230;2023-05-10T05:47:45;13.90;99.90
45765;DHT22;31474;45.332;10.230;2023-05-10T05:50:11;13.90;99.90
45765;DHT22;31474;45.332;10.230;2023-05-10T05:52:36;14.00;99.90
45765;DHT22;31474;45.332;10.230;2023-05-10T05:55:02;13.90;99.90
45765;DHT22;31474;45.332;10.230;2023-05-10T05:57:28;13.90;99.90
45765;DHT22;31474;45.332;10.230;2023-05-10T05:59:53;14.00;99.90
45765;DHT22;31474;45.332;10.230;2023-05-10T06:02:19;14.00;99.90
45765;DHT22;31474;45.332;10.230;2023-05-10T06:04:44;14.00;99.90
45765;DHT22;31474;45.332;10.230;2023-05-10T06:07:10;13.90;99.90
45765;DHT22;31474;45.332;10.230;2023-05-10T06:09:36;14.00;99.90
45765;DHT22;31474;45.332;10.230;2023-05-10T06:12:02;13.90;99.90
45765;DHT22;31474;45.332;10.230;2023-05-10T06:14:27;14.00;99.90
45765;DHT22;31474;45.332;10.230;2023-05-10T06:16:53;14.00;99.90
45765;DHT22;31474;45.332;10.230;2023-05-10T06:19:18;14.00;99.90
45765;DHT22;31474;45.332;10.230;2023-05-10T06:21:44;14.00;99.90
45765;DHT22;31474;45.332;10.230;2023-05-10T06:24:10;14.00;99.90
45765;DHT22;31474;45.332;10.230;2023-05-10T06:26:35;14.00;99.90
45765;DHT22;31474;45.332;10.230;2023-05-10T06:29:01;14.00;99.90
45765;DHT22;31474;45.332;10.230;2023-05-10T06:31:27;14.10;99.90
45765;DHT22;31474;45.332;10.230;2023-05-10T06:33:52;14.10;99.90
45765;DHT22;31474;45.332;10.230;2023-05-10T06:36:18;14.10;99.90
45765;DHT22;31474;45.332;10.230;2023-05-10T06:38:44;14.10;99.90
45765;DHT22;31474;45.332;10.230;2023-05-10T06:41:09;14.10;99.90
45765;DHT22;31474;45.332;10.230;2023-05-10T06:43:35;14.10;99.90
45765;DHT22;31474;45.332;10.230;2023-05-10T06:46:02;14.10;99.90
45765;DHT22;31474;45.332;10.230;2023-05-10T06:48:27;14.10;99.90
45765;DHT22;31474;45.332;10.230;2023-05-10T06:50:53;14.10;99.90
45765;DHT22;31474;45.332;10.230;2023-05-10T06:53:19;14.00;99.90
45765;DHT22;31474;45.332;10.230;2023-05-10T06:55:44;14.10;99.90
45765;DHT22;31474;45.332;10.230;2023-05-10T06:58:10;14.10;99.90
45765;DHT22;31474;45.332;10.230;2023-05-10T07:00:36;14.00;99.90
45765;DHT22;31474;45.332;10.230;2023-05-10T07:03:06;14.00;99.90
45765;DHT22;31474;45.332;10.230;2023-05-10T07:05:31;14.10;99.90
45765;DHT22;31474;45.332;10.230;2023-05-10T07:07:57;14.20;99.90
45765;DHT22;31474;45.332;10.230;2023-05-10T07:10:22;14.20;99.90
45765;DHT22;31474;45.332;10.230;2023-05-10T07:12:48;14.20;99.90
45765;DHT22;31474;45.332;10.230;2023-05-10T07:15:14;14.20;99.90
45765;DHT22;31474;45.332;10.230;2023-05-10T07:17:41;14.20;99.90
45765;DHT22;31474;45.332;10.230;2023-05-10T07:20:07;14.10;99.90
45765;DHT22;31474;45.332;10.230;2023-05-10T07:22:33;14.00;99.90
45765;DHT22;31474;45.332;10.230;2023-05-10T07:24:58;14.10;99.90
45765;DHT22;31474;45.332;10.230;2023-05-10T07:27:24;14.00;99.90
45765;DHT22;31474;45.332;10.230;2023-05-10T07:29:50;14.10;99.90
45765;DHT22;31474;45.332;10.230;2023-05-10T07:32:16;14.20;99.90
45765;DHT22;31474;45.332;10.230;2023-05-10T07:34:41;14.20;99.90
45765;DHT22;31474;45.332;10.230;2023-05-10T07:37:07;14.20;99.90
45765;DHT22;31474;45.332;10.230;2023-05-10T07:39:33;14.20;99.90
45765;DHT22;31474;45.332;10.230;2023-05-10T07:41:58;14.20;99.90
45765;DHT22;31474;45.332;10.230;2023-05-10T07:44:24;14.10;99.90
45765;DHT22;31474;45.332;10.230;2023-05-10T07:46:49;14.20;99.90
45765;DHT22;31474;45.332;10.230;2023-05-10T07:49:15;14.20;99.90
45765;DHT22;31474;45.332;10.230;2023-05-10T07:51:41;14.30;99.90
45765;DHT22;31474;45.332;10.230;2023-05-10T07:54:07;14.30;99.90
45765;DHT22;31474;45.332;10.230;2023-05-10T07:56:33;14.30;99.90
45765;DHT22;31474;45.332;10.230;2023-05-10T07:59:00;14.10;99.90
45765;DHT22;31474;45.332;10.230;2023-05-10T08:01:26;14.10;99.90
45765;DHT22;31474;45.332;10.230;2023-05-10T08:03:52;14.10;99.90
45765;DHT22;31474;45.332;10.230;2023-05-10T08:06:19;14.00;99.90
45765;DHT22;31474;45.332;10.230;2023-05-10T08:08:48;14.00;99.90
45765;DHT22;31474;45.332;10.230;2023-05-10T08:11:17;14.10;99.90
45765;DHT22;31474;45.332;10.230;2023-05-10T08:13:44;14.10;99.90
45765;DHT22;31474;45.332;10.230;2023-05-10T08:16:10;14.10;99.90
45765;DHT22;31474;45.332;10.230;2023-05-10T08:18:37;14.00;99.90
45765;DHT22;31474;45.332;10.230;2023-05-10T08:21:03;14.00;99.90
45765;DHT22;31474;45.332;10.230;2023-05-10T08:23:28;14.00;99.90
45765;DHT22;31474;45.332;10.230;2023-05-10T08:25:54;14.10;99.90
45765;DHT22;31474;45.332;10.230;2023-05-10T08:28:19;14.00;99.90
45765;DHT22;31474;45.332;10.230;2023-05-10T08:30:45;14.00;99.90
45765;DHT22;31474;45.332;10.230;2023-05-10T08:33:10;13.80;99.90
45765;DHT22;31474;45.332;10.230;2023-05-10T08:35:36;13.80;99.90
45765;DHT22;31474;45.332;10.230;2023-05-10T08:38:02;13.80;99.90
45765;DHT22;31474;45.332;10.230;2023-05-10T08:40:28;13.70;99.90
45765;DHT22;31474;45.332;10.230;2023-05-10T08:43:05;13.60;99.90
45765;DHT22;31474;45.332;10.230;2023-05-10T08:45:33;13.60;99.90
45765;DHT22;31474;45.332;10.230;2023-05-10T08:48:02;13.70;99.90
45765;DHT22;31474;45.332;10.230;2023-05-10T08:50:29;13.70;99.90
45765;DHT22;31474;45.332;10.230;2023-05-10T08:53:00;13.70;99.90
45765;DHT22;31474;45.332;10.230;2023-05-10T08:55:29;13.70;99.90
45765;DHT22;31474;45.332;10.230;2023-05-10T08:57:56;13.60;99.90
45765;DHT22;31474;45.332;10.230;2023-05-10T09:00:22;13.80;99.90
45765;DHT22;31474;45.332;10.230;2023-05-10T09:02:49;13.80;99.90
45765;DHT22;31474;45.332;10.230;2023-05-10T09:05:15;13.80;99.90
45765;DHT22;31474;45.332;10.230;2023-05-10T09:07:41;13.80;99.90
45765;DHT22;31474;45.332;10.230;2023-05-10T09:10:08;13.70;99.90
45765;DHT22;31474;45.332;10.230;2023-05-10T09:12:35;13.80;99.90
45765;DHT22;31474;45.332;10.230;2023-05-10T09:15:01;13.80;99.90
45765;DHT22;31474;45.332;10.230;2023-05-10T09:17:29;13.80;99.90
45765;DHT22;31474;45.332;10.230;2023-05-10T09:19:59;13.80;99.90
45765;DHT22;31474;45.332;10.230;2023-05-10T09:22:25;13.80;99.90
45765;DHT22;31474;45.332;10.230;2023-05-10T09:25:08;13.80;99.90
45765;DHT22;31474;45.332;10.230;2023-05-10T09:27:35;13.90;99.90
45765;DHT22;31474;45.332;10.230;2023-05-10T09:30:02;13.80;99.90
45765;DHT22;31474;45.332;10.230;2023-05-10T09:32:45;13.80;99.90
45765;DHT22;31474;45.332;10.230;2023-05-10T09:35:15;13.80;99.90
45765;DHT22;31474;45.332;10.230;2023-05-10T09:37:43;13.80;99.90
45765;DHT22;31474;45.332;10.230;2023-05-10T09:40:14;13.70;99.90
45765;DHT22;31474;45.332;10.230;2023-05-10T09:42:42;13.80;99.90
45765;DHT22;31474;45.332;10.230;2023-05-10T09:45:08;13.80;99.90
45765;DHT22;31474;45.332;10.230;2023-05-10T09:47:35;13.90;99.90
45765;DHT22;31474;45.332;10.230;2023-05-10T09:50:02;13.90;99.90
45765;DHT22;31474;45.332;10.230;2023-05-10T09:53:00;14.00;99.90
45765;DHT22;31474;45.332;10.230;2023-05-10T09:55:41;14.00;99.90
45765;DHT22;31474;45.332;10.230;2023-05-10T09:58:07;13.90;99.90
45765;DHT22;31474;45.332;10.230;2023-05-10T10:00:46;13.90;99.90
45765;DHT22;31474;45.332;10.230;2023-05-10T10:03:18;14.00;99.90
45765;DHT22;31474;45.332;10.230;2023-05-10T10:05:44;14.10;99.90
45765;DHT22;31474;45.332;10.230;2023-05-10T10:08:12;14.20;99.90
45765;DHT22;31474;45.332;10.230;2023-05-10T10:10:38;14.10;99.90
45765;DHT22;31474;45.332;10.230;2023-05-10T10:13:07;14.10;99.90
45765;DHT22;31474;45.332;10.230;2023-05-10T10:15:34;14.10;99.90
45765;DHT22;31474;45.332;10.230;2023-05-10T10:18:00;14.20;99.90
45765;DHT22;31474;45.332;10.230;2023-05-10T10:20:26;14.30;99.90
45765;DHT22;31474;45.332;10.230;2023-05-10T10:22:52;14.40;99.90
45765;DHT22;31474;45.332;10.230;2023-05-10T10:25:20;14.40;99.90
45765;DHT22;31474;45.332;10.230;2023-05-10T10:33:13;14.50;99.90
45765;DHT22;31474;45.332;10.230;2023-05-10T10:35:45;14.50;99.90
45765;DHT22;31474;45.332;10.230;2023-05-10T10:38:12;14.60;99.90
45765;DHT22;31474;45.332;10.230;2023-05-10T10:40:38;14.70;99.90
45765;DHT22;31474;45.332;10.230;2023-05-10T10:43:25;14.70;99.90
45765;DHT22;31474;45.332;10.230;2023-05-10T10:46:14;14.60;99.90
45765;DHT22;31474;45.332;10.230;2023-05-10T10:48:41;14.60;99.90
45765;DHT22;31474;45.332;10.230;2023-05-10T10:51:13;14.60;99.90
45765;DHT22;31474;45.332;10.230;2023-05-10T10:53:40;14.60;99.90
45765;DHT22;31474;45.332;10.230;2023-05-10T10:56:08;14.70;99.90
45765;DHT22;31474;45.332;10.230;2023-05-10T10:58:36;14.70;99.90
45765;DHT22;31474;45.332;10.230;2023-05-10T11:01:16;14.70;99.90
45765;DHT22;31474;45.332;10.230;2023-05-10T11:04:17;14.70;99.90
45765;DHT22;31474;45.332;10.230;2023-05-10T11:06:43;14.70;99.90
45765;DHT22;31474;45.332;10.230;2023-05-10T11:09:11;14.70;99.90
45765;DHT22;31474;45.332;10.230;2023-05-10T11:11:50;14.60;99.90
45765;DHT22;31474;45.332;10.230;2023-05-10T11:14:20;14.60;99.90
45765;DHT22;31474;45.332;10.230;2023-05-10T11:16:47;14.60;99.90
45765;DHT22;31474;45.332;10.230;2023-05-10T11:19:15;14.60;99.90
45765;DHT22;31474;45.332;10.230;2023-05-10T11:21:51;14.70;99.90
45765;DHT22;31474;45.332;10.230;2023-05-10T11:24:20;14.70;99.90
45765;DHT22;31474;45.332;10.230;2023-05-10T11:26:49;14.80;99.90
45765;DHT22;31474;45.332;10.230;2023-05-10T11:29:16;14.80;99.90
45765;DHT22;31474;45.332;10.230;2023-05-10T11:31:43;14.80;99.90
45765;DHT22;31474;45.332;10.230;2023-05-10T11:34:09;14.80;99.90
45765;DHT22;31474;45.332;10.230;2023-05-10T11:36:35;14.90;99.90
45765;DHT22;31474;45.332;10.230;2023-05-10T11:39:02;14.90;99.90
45765;DHT22;31474;45.332;10.230;2023-05-10T11:41:29;15.00;99.90
45765;DHT22;31474;45.332;10.230;2023-05-10T11:43:56;15.10;99.90
45765;DHT22;31474;45.332;10.230;2023-05-10T11:46:27;15.20;99.90
45765;DHT22;31474;45.332;10.230;2023-05-10T11:48:57;15.10;99.90
45765;DHT22;31474;45.332;10.230;2023-05-10T11:51:24;15.10;99.90
45765;DHT22;31474;45.332;10.230;2023-05-10T11:53:52;15.10;99.90
45765;DHT22;31474;45.332;10.230;2023-05-10T11:56:18;15.10;99.90
45765;DHT22;31474;45.332;10.230;2023-05-10T11:58:44;15.20;99.90
45765;DHT22;31474;45.332;10.230;2023-05-10T12:01:10;15.30;99.90
45765;DHT22;31474;45.332;10.230;2023-05-10T12:03:36;15.30;99.90
45765;DHT22;31474;45.332;10.230;2023-05-10T12:06:03;15.30;99.90
45765;DHT22;31474;45.332;10.230;2023-05-10T12:08:29;15.30;99.90
45765;DHT22;31474;45.332;10.230;2023-05-10T12:11:07;15.30;99.90
45765;DHT22;31474;45.332;10.230;2023-05-10T12:13:41;15.30;99.90
45765;DHT22;31474;45.332;10.230;2023-05-10T12:16:14;15.30;99.90
45765;DHT22;31474;45.332;10.230;2023-05-10T12:18:40;15.40;99.90
45765;DHT22;31474;45.332;10.230;2023-05-10T12:21:10;15.40;99.90
45765;DHT22;31474;45.332;10.230;2023-05-10T12:23:36;15.50;99.90
45765;DHT22;31474;45.332;10.230;2023-05-10T12:26:03;15.40;99.90
45765;DHT22;31474;45.332;10.230;2023-05-10T12:28:32;15.40;99.90
45765;DHT22;31474;45.332;10.230;2023-05-10T12:30:59;15.40;99.90
45765;DHT22;31474;45.332;10.230;2023-05-10T12:33:25;15.40;99.90
45765;DHT22;31474;45.332;10.230;2023-05-10T12:35:52;15.40;99.90
45765;DHT22;31474;45.332;10.230;2023-05-10T12:38:40;15.40;99.90
45765;DHT22;31474;45.332;10.230;2023-05-10T12:41:12;15.40;99.90
45765;DHT22;31474;45.332;10.230;2023-05-10T12:43:39;15.50;99.90
45765;DHT22;31474;45.332;10.230;2023-05-10T12:46:09;15.60;99.90
45765;DHT22;31474;45.332;10.230;2023-05-10T12:48:36;15.70;99.90
45765;DHT22;31474;45.332;10.230;2023-05-10T12:51:02;15.70;99.90
45765;DHT22;31474;45.332;10.230;2023-05-10T12:53:28;15.80;99.90
45765;DHT22;31474;45.332;10.230;2023-05-10T12:55:54;15.90;99.90
45765;DHT22;31474;45.332;10.230;2023-05-10T12:58:20;15.90;99.90
45765;DHT22;31474;45.332;10.230;2023-05-10T13:00:46;16.00;99.90
45765;DHT22;31474;45.332;10.230;2023-05-10T13:03:11;16.10;99.90
45765;DHT22;31474;45.332;10.230;2023-05-10T13:05:38;16.10;99.90
45765;DHT22;31474;45.332;10.230;2023-05-10T13:08:03;16.10;99.90
45765;DHT22;31474;45.332;10.230;2023-05-10T13:10:30;16.10;99.90
45765;DHT22;31474;45.332;10.230;2023-05-10T13:12:57;16.20;99.90
45765;DHT22;31474;45.332;10.230;2023-05-10T13:15:23;16.20;99.90
45765;DHT22;31474;45.332;10.230;2023-05-10T13:17:49;16.30;99.90
45765;DHT22;31474;45.332;10.230;2023-05-10T13:20:15;16.30;99.90
45765;DHT22;31474;45.332;10.230;2023-05-10T13:22:42;16.20;99.90
45765;DHT22;31474;45.332;10.230;2023-05-10T13:25:08;16.20;99.90
45765;DHT22;31474;45.332;10.230;2023-05-10T13:27:34;16.30;99.90
45765;DHT22;31474;45.332;10.230;2023-05-10T13:30:00;16.30;99.90
45765;DHT22;31474;45.332;10.230;2023-05-10T13:32:26;16.30;99.90
45765;DHT22;31474;45.332;10.230;2023-05-10T13:34:52;16.40;99.90
45765;DHT22;31474;45.332;10.230;2023-05-10T13:37:17;16.40;99.90
45765;DHT22;31474;45.332;10.230;2023-05-10T13:39:43;16.40;99.90
45765;DHT22;31474;45.332;10.230;2023-05-10T13:42:08;16.40;99.90
45765;DHT22;31474;45.332;10.230;2023-05-10T13:44:34;16.50;99.90
45765;DHT22;31474;45.332;10.230;2023-05-10T13:47:01;16.50;99.90
45765;DHT22;31474;45.332;10.230;2023-05-10T13:49:27;16.50;99.90
45765;DHT22;31474;45.332;10.230;2023-05-10T13:51:52;16.50;99.90
45765;DHT22;31474;45.332;10.230;2023-05-10T13:54:18;16.60;99.90
45765;DHT22;31474;45.332;10.230;2023-05-10T13:56:47;16.60;99.90
45765;DHT22;31474;45.332;10.230;2023-05-10T13:59:14;16.70;99.90
45765;DHT22;31474;45.332;10.230;2023-05-10T14:01:40;16.70;99.90
45765;DHT22;31474;45.332;10.230;2023-05-10T14:04:06;16.80;99.90
45765;DHT22;31474;45.332;10.230;2023-05-10T14:06:33;16.70;99.90
45765;DHT22;31474;45.332;10.230;2023-05-10T14:08:59;16.80;99.90
45765;DHT22;31474;45.332;10.230;2023-05-10T14:11:25;16.80;99.90
45765;DHT22;31474;45.332;10.230;2023-05-10T14:13:50;16.80;99.90
45765;DHT22;31474;45.332;10.230;2023-05-10T14:16:16;16.80;99.90
45765;DHT22;31474;45.332;10.230;2023-05-10T14:18:41;16.60;99.90
45765;DHT22;31474;45.332;10.230;2023-05-10T14:21:07;16.60;99.90
45765;DHT22;31474;45.332;10.230;2023-05-10T14:23:33;16.60;99.90
45765;DHT22;31474;45.332;10.230;2023-05-10T14:25:58;16.60;99.90
45765;DHT22;31474;45.332;10.230;2023-05-10T14:28:24;16.70;99.90
45765;DHT22;31474;45.332;10.230;2023-05-10T14:30:50;16.70;99.90
45765;DHT22;31474;45.332;10.230;2023-05-10T14:33:16;16.70;99.90
45765;DHT22;31474;45.332;10.230;2023-05-10T14:35:42;16.70;99.90
45765;DHT22;31474;45.332;10.230;2023-05-10T14:38:08;16.70;99.90
45765;DHT22;31474;45.332;10.230;2023-05-10T14:40:33;16.70;99.90
45765;DHT22;31474;45.332;10.230;2023-05-10T14:43:00;16.60;99.90
45765;DHT22;31474;45.332;10.230;2023-05-10T14:45:25;16.60;99.90
45765;DHT22;31474;45.332;10.230;2023-05-10T14:47:51;16.60;99.90
45765;DHT22;31474;45.332;10.230;2023-05-10T14:50:17;16.60;99.90
45765;DHT22;31474;45.332;10.230;2023-05-10T14:52:43;16.60;99.90
45765;DHT22;31474;45.332;10.230;2023-05-10T14:55:09;16.60;99.90
45765;DHT22;31474;45.332;10.230;2023-05-10T14:57:35;16.60;99.90
45765;DHT22;31474;45.332;10.230;2023-05-10T15:00:01;16.70;99.90
45765;DHT22;31474;45.332;10.230;2023-05-10T15:02:27;16.60;99.90
45765;DHT22;31474;45.332;10.230;2023-05-10T15:04:52;16.70;99.90
45765;DHT22;31474;45.332;10.230;2023-05-10T15:07:18;16.70;99.90
45765;DHT22;31474;45.332;10.230;2023-05-10T15:09:44;16.80;99.90
45765;DHT22;31474;45.332;10.230;2023-05-10T15:12:10;16.80;99.90
45765;DHT22;31474;45.332;10.230;2023-05-10T15:14:36;16.80;99.90
45765;DHT22;31474;45.332;10.230;2023-05-10T15:17:02;16.90;99.90
45765;DHT22;31474;45.332;10.230;2023-05-10T15:19:28;16.90;99.90
45765;DHT22;31474;45.332;10.230;2023-05-10T15:21:55;16.90;99.90
45765;DHT22;31474;45.332;10.230;2023-05-10T15:24:21;17.00;99.90
45765;DHT22;31474;45.332;10.230;2023-05-10T15:26:47;17.00;99.90
45765;DHT22;31474;45.332;10.230;2023-05-10T15:29:13;17.00;99.90
45765;DHT22;31474;45.332;10.230;2023-05-10T15:31:45;17.10;99.90